Time,TemperatureF,DewpointF,PressureIn,WindDirection,WindDirectionDegrees,WindSpeedMPH,WindSpeedGustMPH,Humidity,HourlyPrecipIn,Conditions,Clouds,dailyrainin,SoftwareType,DateUTC
2014-01-30 00:08:00,7.4,-1.1,30.36,NW,323,0.0,0.6,67,0.00,,---,0.00,VWS V14.00,2014-01-30 05:08:00,
2014-01-30 00:18:00,7.7,-0.6,30.36,NW,323,0.0,0.0,68,0.00,,---,0.00,VWS V14.00,2014-01-30 05:18:00,
2014-01-30 00:28:00,8.3,0.2,30.36,NW,323,0.0,0.0,69,0.00,,---,0.00,VWS V14.00,2014-01-30 05:28:00,
2014-01-30 00:38:00,8.5,0.5,30.37,North,7,0.0,3.5,69,0.00,,---,0.00,VWS V14.00,2014-01-30 05:38:00,
2014-01-30 00:48:00,8.6,0.6,30.38,SW,236,0.0,2.5,69,0.00,,---,0.00,VWS V14.00,2014-01-30 05:48:00,
2014-01-30 00:58:00,8.6,0.5,30.38,SW,236,0.0,0.0,69,0.00,,---,0.00,VWS V14.00,2014-01-30 05:58:00,
2014-01-30 01:08:00,7.7,-0.1,30.39,SW,236,0.0,0.0,70,0.00,,---,0.00,VWS V14.00,2014-01-30 06:08:00,
2014-01-30 01:18:00,7.4,-0.4,30.39,SW,236,0.0,0.0,70,0.00,,---,0.00,VWS V14.00,2014-01-30 06:18:00,
2014-01-30 01:28:00,6.9,-0.9,30.39,SW,236,0.0,0.0,70,0.00,,---,0.00,VWS V14.00,2014-01-30 06:28:00,
2014-01-30 01:38:00,6.6,-1.1,30.40,SW,236,1.2,1.2,70,0.00,,---,0.00,VWS V14.00,2014-01-30 06:38:00,
2014-01-30 01:48:00,6.0,-1.6,30.40,WNW,301,0.0,1.7,70,0.00,,---,0.00,VWS V14.00,2014-01-30 06:48:00,
2014-01-30 01:58:00,6.3,-1.1,30.40,WNW,301,0.0,0.0,71,0.00,,---,0.00,VWS V14.00,2014-01-30 06:58:00,
2014-01-30 02:08:00,6.4,-1.0,30.40,SW,235,0.0,1.1,71,0.00,,---,0.00,VWS V14.00,2014-01-30 07:08:00,
2014-01-30 02:18:00,7.0,-0.4,30.41,SW,221,0.0,0.8,71,0.00,,---,0.00,VWS V14.00,2014-01-30 07:18:00,
2014-01-30 02:28:00,7.0,-0.2,30.41,SW,221,0.0,0.0,72,0.00,,---,0.00,VWS V14.00,2014-01-30 07:28:00,
2014-01-30 02:38:00,6.7,-0.4,30.41,SW,221,0.0,0.0,72,0.00,,---,0.00,VWS V14.00,2014-01-30 07:38:00,
2014-01-30 02:48:00,6.5,-0.6,30.41,SW,221,0.0,0.0,72,0.00,,---,0.00,VWS V14.00,2014-01-30 07:48:00,
2014-01-30 02:58:00,6.2,-0.9,30.41,SW,221,0.0,0.0,72,0.00,,---,0.00,VWS V14.00,2014-01-30 07:58:00,
2014-01-30 03:08:00,5.8,-1.1,30.42,SW,221,0.0,0.0,72,0.00,,---,0.00,VWS V14.00,2014-01-30 08:08:00,
2014-01-30 03:18:00,5.4,-1.5,30.43,SW,221,0.0,0.0,72,0.00,,---,0.00,VWS V14.00,2014-01-30 08:18:00,
2014-01-30 03:28:00,5.0,-1.9,30.43,SW,221,0.0,0.0,72,0.00,,---,0.00,VWS V14.00,2014-01-30 08:28:00,
2014-01-30 03:38:00,5.1,-1.7,30.43,NNW,343,0.0,2.7,73,0.00,,---,0.00,VWS V14.00,2014-01-30 08:38:00,
2014-01-30 03:48:00,5.3,-1.3,30.43,NNW,343,0.0,0.0,74,0.00,,---,0.00,VWS V14.00,2014-01-30 08:48:00,
2014-01-30 03:58:00,4.9,-2.0,30.44,NNW,343,0.0,0.0,73,0.00,,---,0.00,VWS V14.00,2014-01-30 08:58:00,
2014-01-30 04:08:00,4.3,-2.4,30.44,NNW,343,0.0,0.0,73,0.00,,---,0.00,VWS V14.00,2014-01-30 09:08:00,
2014-01-30 04:18:00,4.7,-1.8,30.44,NNW,343,0.0,0.0,74,0.00,,---,0.00,VWS V14.00,2014-01-30 09:18:00,
2014-01-30 04:28:00,4.9,-1.6,30.44,NNW,343,0.0,0.0,74,0.00,,---,0.00,VWS V14.00,2014-01-30 09:28:00,
2014-01-30 04:38:00,4.4,-1.9,30.45,NNW,343,0.0,0.0,74,0.00,,---,0.00,VWS V14.00,2014-01-30 09:38:00,
2014-01-30 04:48:00,4.0,-2.4,30.45,NNW,343,0.0,0.0,74,0.00,,---,0.00,VWS V14.00,2014-01-30 09:48:00,
2014-01-30 04:58:00,3.7,-2.6,30.45,NNW,343,0.0,0.0,74,0.00,,---,0.00,VWS V14.00,2014-01-30 09:58:00,
2014-01-30 05:08:00,3.7,-2.5,30.46,NNW,343,0.0,0.4,75,0.00,,---,0.00,VWS V14.00,2014-01-30 10:08:00,
2014-01-30 05:18:00,3.4,-2.7,30.46,NNW,343,0.0,0.0,75,0.00,,---,0.00,VWS V14.00,2014-01-30 10:18:00,
2014-01-30 05:28:00,3.5,-2.5,30.46,NNW,343,0.0,0.0,75,0.00,,---,0.00,VWS V14.00,2014-01-30 10:28:00,
2014-01-30 05:38:00,3.6,-2.2,30.46,NNW,343,0.0,0.0,76,0.00,,---,0.00,VWS V14.00,2014-01-30 10:38:00,
2014-01-30 05:48:00,3.4,-2.5,30.47,NNW,343,0.0,0.0,76,0.00,,---,0.00,VWS V14.00,2014-01-30 10:48:00,
2014-01-30 05:58:00,3.4,-2.4,30.47,NNW,343,0.0,0.0,76,0.00,,---,0.00,VWS V14.00,2014-01-30 10:58:00,
2014-01-30 06:08:00,3.2,-2.7,30.47,NNW,343,0.0,0.0,76,0.00,,---,0.00,VWS V14.00,2014-01-30 11:08:00,
2014-01-30 06:18:00,3.8,-1.8,30.47,NNW,343,0.0,0.0,77,0.00,,---,0.00,VWS V14.00,2014-01-30 11:18:00,
2014-01-30 06:28:00,3.7,-2.0,30.47,NNW,343,0.0,0.0,77,0.00,,---,0.00,VWS V14.00,2014-01-30 11:28:00,
2014-01-30 06:38:00,3.5,-2.0,30.47,NNW,343,0.0,0.0,77,0.00,,---,0.00,VWS V14.00,2014-01-30 11:38:00,
2014-01-30 06:48:00,4.0,-1.4,30.47,NNW,343,0.0,0.0,78,0.00,,---,0.00,VWS V14.00,2014-01-30 11:48:00,
2014-01-30 06:58:00,4.4,-0.8,30.48,West,271,0.0,2.8,78,0.00,,---,0.00,VWS V14.00,2014-01-30 11:58:00,
2014-01-30 07:08:00,4.9,-0.5,30.48,West,271,0.0,0.0,78,0.00,,---,0.00,VWS V14.00,2014-01-30 12:08:00,
2014-01-30 07:18:00,5.0,-0.4,30.48,West,271,0.0,0.0,78,0.00,,---,0.00,VWS V14.00,2014-01-30 12:18:00,
2014-01-30 07:28:00,4.8,-0.6,30.48,NNW,336,0.0,0.7,78,0.00,,---,0.00,VWS V14.00,2014-01-30 12:28:00,
2014-01-30 07:38:00,5.4,0.3,30.48,NNW,336,0.0,0.0,79,0.00,,---,0.00,VWS V14.00,2014-01-30 12:38:00,
2014-01-30 07:48:00,5.7,0.6,30.48,WNW,292,0.0,1.8,79,0.00,,---,0.00,VWS V14.00,2014-01-30 12:48:00,
2014-01-30 07:58:00,8.1,3.4,30.48,WNW,292,0.0,0.0,81,0.00,,---,0.00,VWS V14.00,2014-01-30 12:58:00,
2014-01-30 08:08:00,11.5,6.6,30.48,WNW,292,0.0,0.0,80,0.00,,---,0.00,VWS V14.00,2014-01-30 13:08:00,
2014-01-30 08:18:00,14.0,8.4,30.49,WSW,255,0.0,4.6,78,0.00,,---,0.00,VWS V14.00,2014-01-30 13:18:00,
2014-01-30 08:28:00,17.3,11.0,30.49,West,263,0.0,1.2,76,0.00,,---,0.00,VWS V14.00,2014-01-30 13:28:00,
2014-01-30 08:38:00,19.6,12.5,30.49,West,263,0.0,0.0,74,0.00,,---,0.00,VWS V14.00,2014-01-30 13:38:00,
2014-01-30 08:48:00,22.0,13.7,30.50,West,263,0.0,0.0,70,0.00,,---,0.00,VWS V14.00,2014-01-30 13:48:00,
2014-01-30 08:58:00,23.4,13.9,30.50,NW,319,3.1,5.5,66,0.00,,---,0.00,VWS V14.00,2014-01-30 13:58:00,
2014-01-30 09:08:00,25.2,14.4,30.51,West,263,0.0,7.0,63,0.00,,---,0.00,VWS V14.00,2014-01-30 14:08:00,
2014-01-30 09:18:00,26.4,12.7,30.51,NW,316,0.0,4.2,56,0.00,,---,0.00,VWS V14.00,2014-01-30 14:18:00,
2014-01-30 09:28:00,28.0,11.6,30.52,NNW,328,2.2,4.8,50,0.00,,---,0.00,VWS V14.00,2014-01-30 14:28:00,
2014-01-30 09:38:00,28.8,10.8,30.52,WSW,250,1.6,5.1,46,0.00,,---,0.00,VWS V14.00,2014-01-30 14:38:00,
2014-01-30 09:48:00,28.9,9.8,30.52,West,278,0.0,4.2,44,0.00,,---,0.00,VWS V14.00,2014-01-30 14:48:00,
2014-01-30 09:58:00,30.3,10.2,30.53,South,170,0.0,3.4,42,0.00,,---,0.00,VWS V14.00,2014-01-30 14:58:00,
2014-01-30 10:08:00,32.8,10.1,30.52,South,170,0.0,0.0,38,0.00,,---,0.00,VWS V14.00,2014-01-30 15:08:00,
2014-01-30 10:18:00,32.9,9.3,30.51,WNW,295,2.9,3.7,37,0.00,,---,0.00,VWS V14.00,2014-01-30 15:18:00,
2014-01-30 10:28:00,34.2,9.9,30.51,NW,309,0.0,5.0,36,0.00,,---,0.00,VWS V14.00,2014-01-30 15:28:00,
2014-01-30 10:38:00,34.3,8.7,30.51,WNW,290,3.2,4.0,34,0.00,,---,0.00,VWS V14.00,2014-01-30 15:38:00,
2014-01-30 10:48:00,36.2,9.2,30.51,NW,308,3.1,3.6,32,0.00,,---,0.00,VWS V14.00,2014-01-30 15:48:00,
2014-01-30 10:58:00,37.7,9.7,30.51,NW,318,0.0,3.1,31,0.00,,---,0.00,VWS V14.00,2014-01-30 15:58:00,
2014-01-30 11:08:00,37.6,9.7,30.50,North,357,1.4,5.1,31,0.00,,---,0.00,VWS V14.00,2014-01-30 16:08:00,
2014-01-30 11:18:00,37.4,9.6,30.49,NE,53,0.0,4.2,31,0.00,,---,0.00,VWS V14.00,2014-01-30 16:18:00,
2014-01-30 11:28:00,37.3,9.0,30.49,ENE,70,0.0,4.6,30,0.00,,---,0.00,VWS V14.00,2014-01-30 16:28:00,
2014-01-30 11:38:00,36.3,9.1,30.48,SE,141,0.0,4.7,32,0.00,,---,0.00,VWS V14.00,2014-01-30 16:38:00,
2014-01-30 11:48:00,37.8,9.5,30.47,ENE,68,3.3,4.9,30,0.00,,---,0.00,VWS V14.00,2014-01-30 16:48:00,
2014-01-30 11:58:00,36.5,8.8,30.46,SE,132,0.0,8.9,31,0.00,,---,0.00,VWS V14.00,2014-01-30 16:58:00,
2014-01-30 12:08:00,33.7,7.6,30.45,East,94,1.6,8.1,33,0.00,,---,0.00,VWS V14.00,2014-01-30 17:08:00,
2014-01-30 12:18:00,35.0,8.8,30.43,South,173,3.5,7.1,33,0.00,,---,0.00,VWS V14.00,2014-01-30 17:18:00,
2014-01-30 12:28:00,32.5,7.5,30.42,SSE,156,3.9,7.4,34,0.00,,---,0.00,VWS V14.00,2014-01-30 17:28:00,
2014-01-30 12:38:00,33.1,7.7,30.41,East,90,0.0,8.0,34,0.00,,---,0.00,VWS V14.00,2014-01-30 17:38:00,
2014-01-30 12:48:00,34.4,8.9,30.41,SE,128,1.6,9.6,34,0.00,,---,0.00,VWS V14.00,2014-01-30 17:48:00,
2014-01-30 12:58:00,33.0,7.6,30.41,SSW,207,4.5,8.9,34,0.00,,---,0.00,VWS V14.00,2014-01-30 17:58:00,
2014-01-30 13:08:00,33.4,9.4,30.40,SE,146,0.7,7.3,36,0.00,,---,0.00,VWS V14.00,2014-01-30 18:08:00,
2014-01-30 13:18:00,32.1,8.3,30.39,SSE,160,5.2,8.2,36,0.00,,---,0.00,VWS V14.00,2014-01-30 18:18:00,
2014-01-30 13:28:00,31.4,8.0,30.39,SE,136,6.6,8.8,37,0.00,,---,0.00,VWS V14.00,2014-01-30 18:28:00,
2014-01-30 13:38:00,31.3,9.4,30.40,SW,217,2.6,8.9,39,0.00,,---,0.00,VWS V14.00,2014-01-30 18:38:00,
2014-01-30 13:48:00,31.1,8.3,30.40,SSE,159,4.3,8.0,38,0.00,,---,0.00,VWS V14.00,2014-01-30 18:48:00,
2014-01-30 13:58:00,30.3,9.1,30.39,SE,139,1.9,11.9,40,0.00,,---,0.00,VWS V14.00,2014-01-30 18:58:00,
2014-01-30 14:08:00,30.9,10.7,30.39,ESE,115,3.0,10.6,42,0.00,,---,0.00,VWS V14.00,2014-01-30 19:08:00,
2014-01-30 14:18:00,30.4,11.0,30.37,SSW,194,7.1,9.4,44,0.00,,---,0.00,VWS V14.00,2014-01-30 19:18:00,
2014-01-30 14:28:00,31.2,11.4,30.37,SW,221,3.1,8.9,43,0.00,,---,0.00,VWS V14.00,2014-01-30 19:28:00,
2014-01-30 14:38:00,30.1,10.9,30.37,South,183,5.5,10.3,44,0.00,,---,0.00,VWS V14.00,2014-01-30 19:38:00,
2014-01-30 14:48:00,30.6,11.2,30.37,South,172,1.4,11.1,44,0.00,,---,0.00,VWS V14.00,2014-01-30 19:48:00,
2014-01-30 14:58:00,29.9,11.3,30.36,SSW,202,8.4,11.9,45,0.00,,---,0.00,VWS V14.00,2014-01-30 19:58:00,
2014-01-30 15:08:00,29.4,11.6,30.36,SSW,195,6.0,8.4,47,0.00,,---,0.00,VWS V14.00,2014-01-30 20:08:00,
2014-01-30 15:18:00,28.9,11.9,30.36,SW,214,3.8,9.1,48,0.00,,---,0.00,VWS V14.00,2014-01-30 20:18:00,
2014-01-30 15:28:00,28.3,12.4,30.36,SSW,202,3.5,9.2,51,0.00,,---,0.00,VWS V14.00,2014-01-30 20:28:00,
2014-01-30 15:38:00,29.2,13.2,30.35,South,181,1.6,6.8,51,0.00,,---,0.00,VWS V14.00,2014-01-30 20:38:00,
2014-01-30 15:48:00,29.3,13.9,30.35,SSE,162,1.1,7.1,52,0.00,,---,0.00,VWS V14.00,2014-01-30 20:48:00,
2014-01-30 15:58:00,29.2,13.6,30.35,SSW,205,7.7,7.7,52,0.00,,---,0.00,VWS V14.00,2014-01-30 20:58:00,
2014-01-30 16:08:00,28.7,13.6,30.35,SSE,160,1.3,8.5,53,0.00,,---,0.00,VWS V14.00,2014-01-30 21:08:00,
2014-01-30 16:18:00,27.9,13.9,30.35,SSE,149,1.3,6.3,55,0.00,,---,0.00,VWS V14.00,2014-01-30 21:18:00,
2014-01-30 16:28:00,27.5,14.3,30.36,South,176,2.6,4.5,57,0.00,,---,0.00,VWS V14.00,2014-01-30 21:28:00,
2014-01-30 16:38:00,26.6,13.8,30.36,South,169,1.4,5.4,58,0.00,,---,0.00,VWS V14.00,2014-01-30 21:38:00,
2014-01-30 16:48:00,26.2,14.0,30.36,SW,214,1.7,6.7,59,0.00,,---,0.00,VWS V14.00,2014-01-30 21:48:00,
2014-01-30 16:58:00,25.8,14.2,30.36,SSW,205,0.0,4.6,61,0.00,,---,0.00,VWS V14.00,2014-01-30 21:58:00,
2014-01-30 17:08:00,25.2,13.9,30.35,SE,138,0.0,4.6,62,0.00,,---,0.00,VWS V14.00,2014-01-30 22:08:00,
2014-01-30 17:18:00,24.6,13.5,30.35,SW,222,0.0,2.4,62,0.00,,---,0.00,VWS V14.00,2014-01-30 22:18:00,
2014-01-30 17:28:00,23.9,13.2,30.34,SW,222,0.0,0.0,63,0.00,,---,0.00,VWS V14.00,2014-01-30 22:28:00,
2014-01-30 17:38:00,23.4,13.2,30.34,SW,222,0.0,0.0,64,0.00,,---,0.00,VWS V14.00,2014-01-30 22:38:00,
2014-01-30 17:48:00,22.9,13.1,30.34,SSE,155,0.0,1.4,65,0.00,,---,0.00,VWS V14.00,2014-01-30 22:48:00,
2014-01-30 17:58:00,22.3,12.8,30.33,SE,134,0.0,1.7,66,0.00,,---,0.00,VWS V14.00,2014-01-30 22:58:00,
2014-01-30 18:08:00,22.0,12.9,30.33,SE,134,0.0,0.0,68,0.00,,---,0.00,VWS V14.00,2014-01-30 23:08:00,
2014-01-30 18:18:00,21.4,12.6,30.31,SE,127,0.0,2.0,68,0.00,,---,0.00,VWS V14.00,2014-01-30 23:18:00,
2014-01-30 18:28:00,20.8,12.2,30.31,SE,127,0.0,0.0,69,0.00,,---,0.00,VWS V14.00,2014-01-30 23:28:00,
2014-01-30 18:38:00,20.5,12.2,30.31,SE,127,0.0,0.0,70,0.00,,---,0.00,VWS V14.00,2014-01-30 23:38:00,
2014-01-30 18:48:00,19.8,11.7,30.31,SE,127,0.0,0.0,70,0.00,,---,0.00,VWS V14.00,2014-01-30 23:48:00,
2014-01-30 18:58:00,19.4,11.5,30.31,SE,127,0.0,0.0,71,0.00,,---,0.00,VWS V14.00,2014-01-30 23:58:00,
2014-01-30 19:08:00,18.3,10.7,30.31,SE,127,0.0,0.0,72,0.00,,---,0.00,VWS V14.00,2014-01-31 00:08:00,
2014-01-30 19:18:00,17.8,10.5,30.29,SE,127,0.0,0.0,73,0.00,,---,0.00,VWS V14.00,2014-01-31 00:18:00,
2014-01-30 19:28:00,17.5,10.4,30.28,SE,127,0.0,0.0,73,0.00,,---,0.00,VWS V14.00,2014-01-31 00:28:00,
2014-01-30 19:38:00,16.9,9.9,30.28,SE,127,0.0,0.0,73,0.00,,---,0.00,VWS V14.00,2014-01-31 00:38:00,
2014-01-30 19:48:00,16.3,9.7,30.28,SE,127,0.0,0.0,75,0.00,,---,0.00,VWS V14.00,2014-01-31 00:48:00,
2014-01-30 19:58:00,15.9,9.5,30.28,SE,127,0.0,0.0,75,0.00,,---,0.00,VWS V14.00,2014-01-31 00:58:00,
2014-01-30 20:08:00,15.7,9.4,30.28,SE,127,0.0,0.0,76,0.00,,---,0.00,VWS V14.00,2014-01-31 01:08:00,
2014-01-30 20:18:00,15.5,9.4,30.28,SE,127,0.0,0.0,76,0.00,,---,0.00,VWS V14.00,2014-01-31 01:18:00,
2014-01-30 20:28:00,15.0,9.1,30.29,SE,127,0.0,0.0,77,0.00,,---,0.00,VWS V14.00,2014-01-31 01:28:00,
2014-01-30 20:38:00,15.1,9.5,30.29,SE,127,0.0,0.0,78,0.00,,---,0.00,VWS V14.00,2014-01-31 01:38:00,
2014-01-30 20:48:00,14.7,9.2,30.29,SE,127,0.0,0.0,78,0.00,,---,0.00,VWS V14.00,2014-01-31 01:48:00,
2014-01-30 20:58:00,14.5,9.1,30.28,SE,127,0.0,0.0,78,0.00,,---,0.00,VWS V14.00,2014-01-31 01:58:00,
2014-01-30 21:08:00,14.2,9.1,30.27,SE,127,0.0,0.0,80,0.00,,---,0.00,VWS V14.00,2014-01-31 02:08:00,
2014-01-30 21:18:00,14.0,8.9,30.27,SE,127,0.0,0.0,80,0.00,,---,0.00,VWS V14.00,2014-01-31 02:18:00,
2014-01-30 21:28:00,14.4,10.1,30.26,SE,127,0.0,0.0,82,0.00,,---,0.00,VWS V14.00,2014-01-31 02:28:00,
2014-01-30 21:38:00,14.2,9.4,30.26,SE,127,0.0,0.0,81,0.00,,---,0.00,VWS V14.00,2014-01-31 02:38:00,
2014-01-30 21:48:00,13.7,9.1,30.26,SE,127,0.0,0.0,82,0.00,,---,0.00,VWS V14.00,2014-01-31 02:48:00,
2014-01-30 21:58:00,13.5,9.1,30.25,SE,127,0.0,0.0,82,0.00,,---,0.00,VWS V14.00,2014-01-31 02:58:00,
2014-01-30 22:08:00,13.0,8.6,30.26,SE,127,0.0,0.0,82,0.00,,---,0.00,VWS V14.00,2014-01-31 03:08:00,
2014-01-30 22:18:00,13.0,8.9,30.26,SE,127,0.0,0.0,83,0.00,,---,0.00,VWS V14.00,2014-01-31 03:18:00,
2014-01-30 22:28:00,12.7,8.6,30.27,SE,127,0.0,0.0,83,0.00,,---,0.00,VWS V14.00,2014-01-31 03:28:00,
2014-01-30 22:38:00,12.8,8.8,30.26,SE,127,0.0,0.0,84,0.00,,---,0.00,VWS V14.00,2014-01-31 03:38:00,
2014-01-30 22:48:00,13.0,9.0,30.26,SE,127,0.0,0.0,84,0.00,,---,0.00,VWS V14.00,2014-01-31 03:48:00,
2014-01-30 22:58:00,12.8,8.8,30.26,SE,127,0.0,0.0,84,0.00,,---,0.00,VWS V14.00,2014-01-31 03:58:00,
2014-01-30 23:08:00,13.0,9.1,30.25,SE,127,0.0,0.0,84,0.00,,---,0.00,VWS V14.00,2014-01-31 04:08:00,
2014-01-30 23:18:00,13.3,9.4,30.24,SE,127,0.0,0.0,84,0.00,,---,0.00,VWS V14.00,2014-01-31 04:18:00,
2014-01-30 23:28:00,12.8,9.0,30.24,SE,127,0.0,0.0,84,0.00,,---,0.00,VWS V14.00,2014-01-31 04:28:00,
2014-01-30 23:38:00,12.9,9.2,30.25,SE,127,0.0,0.0,85,0.00,,---,0.00,VWS V14.00,2014-01-31 04:38:00,
2014-01-30 23:48:00,13.1,9.4,30.23,SE,127,0.0,0.0,85,0.00,,---,0.00,VWS V14.00,2014-01-31 04:48:00,